Time;durP1;ratioP1;P1;durP2;ratioP2;P2;SDS_P1;SDS_P2;PMS_P1;PMS_P2;Temp;Humidity;BMP_temperature;BMP_pressure;BME280_temperature;BME280_humidity;BME280_pressure;Samples;Min_cycle;Max_cycle;Signal;HPM_P1;HPM_P2
2022/10/10 00:00:22;;;;;;;;;;;;;;;16.02;100.00;98893.19;5026645;28;19956;-71
2022/10/10 00:02:47;;;;;;;;;;;;;;;16.10;100.00;98893.59;5044936;28;19921;-71
2022/10/10 00:05:13;;;;;;;;;;;;;;;15.40;100.00;98907.81;5044909;28;20472;-72
2022/10/10 00:07:38;;;;;;;;;;;;;;;15.62;100.00;98904.88;5026892;28;20368;-72
2022/10/10 00:10:03;;;;;;;;;;;;;;;16.06;100.00;98893.88;5044192;28;20642;-72
2022/10/10 00:12:28;;;;;;;;;;;;;;;15.56;100.00;98907.84;5026622;28;20442;-71
2022/10/10 00:14:54;;;;;;;;;;;;;;;16.07;100.00;98885.97;5044174;28;19920;-73
2022/10/10 00:17:19;;;;;;;;;;;;;;;16.09;100.00;98883.28;5027059;28;20371;-74
2022/10/10 00:19:44;;;;;;;;;;;;;;;15.43;100.00;98897.28;5044427;28;19924;-74
2022/10/10 00:22:09;;;;;;;;;;;;;;;15.69;100.00;98901.03;5044408;28;19928;-74
2022/10/10 00:24:35;;;;;;;;;;;;;;;15.99;100.00;98884.75;5044866;28;19917;-73
2022/10/10 00:27:00;;;;;;;;;;;;;;;15.59;100.00;98895.50;5027023;28;19916;-74
2022/10/10 00:29:25;;;;;;;;;;;;;;;15.36;100.00;98907.13;5044479;28;19962;-74
2022/10/10 00:31:50;;;;;;;;;;;;;;;15.43;100.00;98899.88;5043977;28;19936;-74
2022/10/10 00:34:16;;;;;;;;;;;;;;;15.81;100.00;98884.84;5043075;28;20003;-74
2022/10/10 00:36:41;;;;;;;;;;;;;;;15.34;100.00;98885.63;5026767;28;19956;-74
2022/10/10 00:39:06;;;;;;;;;;;;;;;15.85;100.00;98877.69;5026394;28;20421;-73
2022/10/10 00:41:31;;;;;;;;;;;;;;;15.75;100.00;98884.34;5026332;28;20000;-74
2022/10/10 00:44:04;;;;;;;;;;;;;;;15.01;100.00;98896.84;5048279;28;19923;-73
2022/10/10 00:46:29;;;;;;;;;;;;;;;14.76;100.00;98896.44;5048755;28;19965;-73
2022/10/10 00:48:55;;;;;;;;;;;;;;;14.66;100.00;98890.03;5030153;28;20455;-74
2022/10/10 00:51:20;;;;;;;;;;;;;;;14.78;100.00;98892.00;5029596;28;19928;-74
2022/10/10 00:53:54;;;;;;;;;;;;;;;15.29;100.00;98871.22;5030169;28;19920;-74
2022/10/10 00:56:20;;;;;;;;;;;;;;;14.67;100.00;98891.72;5030709;28;19934;-73
2022/10/10 00:58:47;;;;;;;;;;;;;;;14.36;100.00;98893.22;5030169;28;19948;-74
2022/10/10 01:01:12;;;;;;;;;;;;;;;14.30;100.00;98896.09;5048264;28;20011;-74
2022/10/10 01:03:38;;;;;;;;;;;;;;;14.66;100.00;98887.44;5048306;28;20106;-73
2022/10/10 01:06:03;;;;;;;;;;;;;;;14.94;100.00;98886.88;5047874;28;19923;-74
2022/10/10 01:08:28;;;;;;;;;;;;;;;15.24;100.00;98880.09;5046374;28;19920;-74
2022/10/10 01:11:04;;;;;;;;;;;;;;;14.59;100.00;98892.94;5030157;28;19916;-73
2022/10/10 01:13:33;;;;;;;;;;;;;;;15.17;100.00;98888.28;5029626;28;19936;-73
2022/10/10 01:16:20;;;;;;;;;;;;;;;15.01;100.00;98894.28;5029925;28;19924;-73
2022/10/10 01:18:48;;;;;;;;;;;;;;;15.51;100.00;98881.28;5030105;28;19920;-74
2022/10/10 01:21:34;;;;;;;;;;;;;;;15.44;100.00;98881.63;5047901;28;19913;-74
2022/10/10 01:24:08;;;;;;;;;;;;;;;15.38;100.00;98887.13;5046695;28;19959;-74
2022/10/10 01:26:48;;;;;;;;;;;;;;;15.83;100.00;98879.56;5047940;28;20019;-73
2022/10/10 01:29:19;;;;;;;;;;;;;;;15.23;100.00;98888.78;5013353;28;19970;-73
2022/10/10 01:31:45;;;;;;;;;;;;;;;15.13;100.00;98892.78;5046597;28;20399;-73
2022/10/10 01:34:26;;;;;;;;;;;;;;;15.01;100.00;98902.03;5012560;28;19929;-73
2022/10/10 01:36:51;;;;;;;;;;;;;;;14.67;100.00;98889.13;5012946;28;19917;-74
2022/10/10 01:39:24;;;;;;;;;;;;;;;14.63;100.00;98894.47;5047282;28;20012;-73
2022/10/10 01:41:51;;;;;;;;;;;;;;;14.56;100.00;98898.28;5029355;28;20007;-73
2022/10/10 01:44:16;;;;;;;;;;;;;;;14.75;100.00;98892.16;5029563;28;19931;-74
2022/10/10 01:46:41;;;;;;;;;;;;;;;14.82;100.00;98893.53;5029483;28;19913;-73
2022/10/10 01:49:06;;;;;;;;;;;;;;;14.57;100.00;98894.78;5047213;28;19913;-74
2022/10/10 01:51:51;;;;;;;;;;;;;;;14.58;100.00;98896.44;5029607;28;19924;-74
2022/10/10 01:54:26;;;;;;;;;;;;;;;14.58;100.00;98899.03;5046315;28;19921;-74
2022/10/10 01:56:54;;;;;;;;;;;;;;;14.78;100.00;98881.63;5029445;28;19928;-73
2022/10/10 01:59:22;;;;;;;;;;;;;;;14.61;100.00;98883.31;5047439;28;19959;-74
2022/10/10 02:02:01;;;;;;;;;;;;;;;14.15;100.00;98887.34;5047330;28;20337;-74
2022/10/10 02:04:29;;;;;;;;;;;;;;;13.87;100.00;98893.00;5045184;28;19974;-74
2022/10/10 02:06:56;;;;;;;;;;;;;;;14.25;100.00;98888.53;5029064;28;19921;-73
2022/10/10 02:09:24;;;;;;;;;;;;;;;14.59;100.00;98879.13;5012649;28;19927;-73
2022/10/10 02:11:50;;;;;;;;;;;;;;;14.14;100.00;98883.03;5012538;28;20074;-74
2022/10/10 02:14:19;;;;;;;;;;;;;;;14.33;100.00;98885.59;5028963;28;19924;-74
2022/10/10 02:16:45;;;;;;;;;;;;;;;14.32;100.00;98869.22;5029088;28;19917;-73
2022/10/10 02:19:12;;;;;;;;;;;;;;;14.95;100.00;98863.47;5028825;28;19927;-73
2022/10/10 02:21:37;;;;;;;;;;;;;;;14.46;100.00;98871.13;5029003;28;20371;-74
2022/10/10 02:24:03;;;;;;;;;;;;;;;14.72;100.00;98869.84;5044613;28;19928;-73
2022/10/10 02:26:28;;;;;;;;;;;;;;;14.56;100.00;98872.34;5045304;28;19927;-74
2022/10/10 02:29:05;;;;;;;;;;;;;;;14.42;100.00;98870.44;5028401;28;19943;-73
2022/10/10 02:31:33;;;;;;;;;;;;;;;13.86;100.00;98855.06;5028772;28;19914;-74
2022/10/10 02:34:00;;;;;;;;;;;;;;;14.29;100.00;98864.19;5028251;28;20020;-73
2022/10/10 02:36:25;;;;;;;;;;;;;;;14.01;100.00;98859.53;5028415;28;19924;-73
2022/10/10 02:38:51;;;;;;;;;;;;;;;13.97;100.00;98868.34;5011695;28;19917;-73
2022/10/10 02:41:16;;;;;;;;;;;;;;;13.85;100.00;98868.94;5046701;28;20543;-74
2022/10/10 02:43:42;;;;;;;;;;;;;;;14.35;100.00;98863.06;5046482;28;20946;-74
2022/10/10 02:46:07;;;;;;;;;;;;;;;14.33;100.00;98854.50;5045978;28;19971;-74
2022/10/10 02:48:33;;;;;;;;;;;;;;;13.87;100.00;98861.94;5011692;28;19920;-73
2022/10/10 02:50:58;;;;;;;;;;;;;;;13.42;100.00;98865.75;5046245;28;19920;-74
2022/10/10 02:53:23;;;;;;;;;;;;;;;14.00;100.00;98857.81;5028501;28;19923;-74
2022/10/10 02:55:49;;;;;;;;;;;;;;;13.36;100.00;98852.19;5046123;28;19971;-73
2022/10/10 02:58:14;;;;;;;;;;;;;;;14.07;100.00;98854.06;5046013;28;20516;-73
2022/10/10 03:00:39;;;;;;;;;;;;;;;14.19;100.00;98848.25;5046146;28;19924;-73
2022/10/10 03:03:05;;;;;;;;;;;;;;;13.94;100.00;98858.13;5046128;28;19971;-74
2022/10/10 03:05:30;;;;;;;;;;;;;;;13.31;100.00;98856.72;5027643;28;19928;-73
2022/10/10 03:07:55;;;;;;;;;;;;;;;13.76;100.00;98854.69;5045498;28;20440;-74
2022/10/10 03:10:20;;;;;;;;;;;;;;;13.36;100.00;98861.69;5045418;28;20389;-73
2022/10/10 03:12:46;;;;;;;;;;;;;;;13.54;100.00;98852.25;5027748;28;19925;-73
2022/10/10 03:15:11;;;;;;;;;;;;;;;13.53;100.00;98854.00;5044442;28;19916;-73
2022/10/10 03:17:36;;;;;;;;;;;;;;;13.83;100.00;98848.28;5044830;28;20009;-73
2022/10/10 03:20:02;;;;;;;;;;;;;;;13.19;100.00;98852.91;5044062;28;20008;-73
2022/10/10 03:22:27;;;;;;;;;;;;;;;12.94;100.00;98850.59;5027617;28;19916;-73
2022/10/10 03:24:53;;;;;;;;;;;;;;;13.50;100.00;98853.28;5045142;28;19939;-73
2022/10/10 03:27:18;;;;;;;;;;;;;;;13.23;100.00;98845.88;5027462;28;19935;-74
2022/10/10 03:29:43;;;;;;;;;;;;;;;13.20;100.00;98851.16;5009988;28;19921;-73
2022/10/10 03:32:08;;;;;;;;;;;;;;;13.43;100.00;98844.13;5045479;28;19971;-73
2022/10/10 03:34:34;;;;;;;;;;;;;;;13.25;100.00;98835.44;5045414;28;20390;-73
2022/10/10 03:36:59;;;;;;;;;;;;;;;13.27;100.00;98844.81;5046177;28;19970;-76
2022/10/10 03:39:24;;;;;;;;;;;;;;;13.05;100.00;98836.38;5027008;28;19982;-73
2022/10/10 03:41:49;;;;;;;;;;;;;;;12.91;100.00;98835.22;5045014;28;19920;-73
2022/10/10 03:44:15;;;;;;;;;;;;;;;13.59;100.00;98833.03;5027052;28;19939;-74
2022/10/10 03:46:40;;;;;;;;;;;;;;;13.26;100.00;98825.03;5045216;28;19959;-74
2022/10/10 03:49:05;;;;;;;;;;;;;;;13.74;100.00;98834.03;5043989;28;19928;-74
2022/10/10 03:51:31;;;;;;;;;;;;;;;13.24;100.00;98832.03;5043901;28;20015;-73
2022/10/10 03:53:56;;;;;;;;;;;;;;;13.87;100.00;98831.72;5043333;28;19966;-74
2022/10/10 03:56:21;;;;;;;;;;;;;;;13.49;100.00;98829.19;5026991;28;19913;-73
2022/10/10 03:58:46;;;;;;;;;;;;;;;13.56;100.00;98834.91;5026634;28;19917;-73
2022/10/10 04:01:12;;;;;;;;;;;;;;;13.86;100.00;98824.84;5026969;28;19967;-73
2022/10/10 04:03:37;;;;;;;;;;;;;;;13.44;100.00;98825.97;5044935;28;20035;-73
2022/10/10 04:06:02;;;;;;;;;;;;;;;13.84;100.00;98820.66;5026870;28;19920;-73
2022/10/10 04:08:29;;;;;;;;;;;;;;;13.57;100.00;98818.44;5026584;28;19959;-73
2022/10/10 04:10:54;;;;;;;;;;;;;;;13.45;100.00;98822.47;5024714;28;19975;-73
2022/10/10 04:13:20;;;;;;;;;;;;;;;13.64;100.00;98825.03;5044448;28;19940;-73
2022/10/10 04:15:48;;;;;;;;;;;;;;;13.96;100.00;98825.25;5026470;28;20012;-73
2022/10/10 04:18:13;;;;;;;;;;;;;;;14.11;100.00;98811.53;5025938;28;19920;-73
2022/10/10 04:20:38;;;;;;;;;;;;;;;13.90;100.00;98813.44;5026088;28;19927;-73
2022/10/10 04:23:04;;;;;;;;;;;;;;;13.29;100.00;98819.75;5026216;28;19928;-74
2022/10/10 04:25:29;;;;;;;;;;;;;;;13.29;100.00;98816.31;5026395;28;20294;-74
2022/10/10 04:27:54;;;;;;;;;;;;;;;13.77;100.00;98818.34;5043443;28;20353;-74
2022/10/10 04:30:19;;;;;;;;;;;;;;;12.72;100.00;98831.75;5043765;28;19917;-74
2022/10/10 04:32:45;;;;;;;;;;;;;;;13.11;100.00;98828.31;5026037;28;19921;-74
2022/10/10 04:35:10;;;;;;;;;;;;;;;13.17;100.00;98815.94;5024826;28;19977;-73
2022/10/10 04:37:35;;;;;;;;;;;;;;;13.52;100.00;98815.25;5025272;28;19916;-73
2022/10/10 04:40:01;;;;;;;;;;;;;;;13.56;100.00;98809.03;5042606;28;20015;-73
2022/10/10 04:42:26;;;;;;;;;;;;;;;13.46;100.00;98806.03;5025002;28;19923;-73
2022/10/10 04:44:51;;;;;;;;;;;;;;;13.51;100.00;98798.91;5026275;28;20553;-73
2022/10/10 04:47:16;;;;;;;;;;;;;;;13.77;100.00;98802.81;5044099;28;19957;-74
2022/10/10 04:49:42;;;;;;;;;;;;;;;13.50;100.00;98796.38;5009707;28;19913;-73
2022/10/10 04:52:08;;;;;;;;;;;;;;;13.69;100.00;98802.38;5010122;28;19920;-74
2022/10/10 04:54:33;;;;;;;;;;;;;;;13.25;100.00;98805.28;5027200;28;20375;-74
2022/10/10 04:56:58;;;;;;;;;;;;;;;13.28;100.00;98805.16;5044791;28;19917;-74
2022/10/10 04:59:24;;;;;;;;;;;;;;;13.30;100.00;98807.69;5044268;28;19920;-74
2022/10/10 05:01:49;;;;;;;;;;;;;;;13.12;100.00;98804.16;5026080;28;20303;-74
2022/10/10 05:04:14;;;;;;;;;;;;;;;13.16;100.00;98803.94;5044383;28;19939;-74
2022/10/10 05:06:39;;;;;;;;;;;;;;;13.63;100.00;98805.25;5026273;28;19912;-73
2022/10/10 05:09:04;;;;;;;;;;;;;;;13.22;100.00;98813.16;5044195;28;19913;-73
2022/10/10 05:11:30;;;;;;;;;;;;;;;13.26;100.00;98806.09;5043933;28;19920;-74
2022/10/10 05:13:55;;;;;;;;;;;;;;;13.41;100.00;98804.56;5042549;28;19917;-74
2022/10/10 05:16:20;;;;;;;;;;;;;;;13.50;100.00;98791.19;5026003;28;19912;-74
2022/10/10 05:18:45;;;;;;;;;;;;;;;13.43;100.00;98808.75;5026097;28;19927;-74
2022/10/10 05:21:11;;;;;;;;;;;;;;;13.49;100.00;98811.06;5025988;28;19913;-74
2022/10/10 05:23:37;;;;;;;;;;;;;;;13.37;100.00;98812.47;5043594;28;19921;-74
2022/10/10 05:26:02;;;;;;;;;;;;;;;13.68;100.00;98805.84;5026415;28;19917;-74
2022/10/10 05:28:27;;;;;;;;;;;;;;;13.74;100.00;98804.72;5024846;28;19931;-73
2022/10/10 05:30:53;;;;;;;;;;;;;;;13.76;100.00;98808.91;5047401;28;20408;-73
2022/10/10 05:33:18;;;;;;;;;;;;;;;13.66;100.00;98806.84;5029925;28;19917;-73
2022/10/10 05:35:43;;;;;;;;;;;;;;;14.25;100.00;98795.31;5029784;28;19921;-73
2022/10/10 05:38:08;;;;;;;;;;;;;;;14.00;100.00;98801.72;5047346;28;19917;-74
2022/10/10 05:40:34;;;;;;;;;;;;;;;13.71;100.00;98810.91;5029104;28;19921;-73
2022/10/10 05:42:59;;;;;;;;;;;;;;;13.80;100.00;98809.63;5030501;28;19924;-72
2022/10/10 05:45:24;;;;;;;;;;;;;;;13.47;100.00;98809.47;5029348;28;19967;-72
2022/10/10 05:47:49;;;;;;;;;;;;;;;13.49;100.00;98810.22;5057438;22;20028;-45
2022/10/10 05:50:24;;;;;;;;;;;;;;;13.64;100.00;98809.53;5041610;28;19932;-46
2022/10/10 05:52:49;;;;;;;;;;;;;;;13.73;100.00;98809.06;5041750;28;20971;-46
2022/10/10 05:55:15;;;;;;;;;;;;;;;13.47;100.00;98807.72;5024569;28;19917;-44
2022/10/10 05:57:40;;;;;;;;;;;;;;;13.84;100.00;98812.88;5042802;28;20427;-45
2022/10/10 06:00:05;;;;;;;;;;;;;;;13.67;100.00;98814.53;5041526;28;19921;-45
2022/10/10 06:02:31;;;;;;;;;;;;;;;14.02;100.00;98809.41;5042692;28;19916;-45
2022/10/10 06:04:56;;;;;;;;;;;;;;;13.79;100.00;98808.75;5042170;28;19923;-45
2022/10/10 06:07:21;;;;;;;;;;;;;;;14.35;100.00;98800.88;5042292;28;20363;-45
2022/10/10 06:09:46;;;;;;;;;;;;;;;13.60;100.00;98802.81;5020428;28;20363;-45
2022/10/10 06:12:11;;;;;;;;;;;;;;;14.37;100.00;98794.69;5041975;28;20033;-46
2022/10/10 06:14:37;;;;;;;;;;;;;;;14.08;100.00;98808.28;5042250;28;19913;-45
2022/10/10 06:17:03;;;;;;;;;;;;;;;13.94;100.00;98811.53;5042040;28;19919;-45
2022/10/10 06:19:28;;;;;;;;;;;;;;;14.14;100.00;98802.78;5023054;28;20428;-45
2022/10/10 06:21:53;;;;;;;;;;;;;;;14.34;100.00;98806.97;5040856;28;20010;-45
2022/10/10 06:24:19;;;;;;;;;;;;;;;14.51;100.00;98794.00;5040390;28;20352;-45
2022/10/10 06:26:44;;;;;;;;;;;;;;;14.25;100.00;98805.66;5041681;28;20717;-45
2022/10/10 06:29:09;;;;;;;;;;;;;;;14.39;100.00;98803.22;5041114;28;20298;-45
2022/10/10 06:31:38;;;;;;;;;;;;;;;14.02;100.00;98809.41;5041506;28;20487;-45
2022/10/10 06:34:03;;;;;;;;;;;;;;;14.25;100.00;98810.84;5041634;28;20678;-45
2022/10/10 06:36:29;;;;;;;;;;;;;;;14.28;100.00;98810.72;5041830;28;20019;-46
2022/10/10 06:38:54;;;;;;;;;;;;;;;14.53;100.00;98799.94;5041612;28;20289;-45
2022/10/10 06:41:19;;;;;;;;;;;;;;;14.40;100.00;98811.84;5041517;28;19931;-45
2022/10/10 06:43:44;;;;;;;;;;;;;;;14.75;100.00;98798.84;5040580;28;20364;-46
2022/10/10 06:46:10;;;;;;;;;;;;;;;14.22;100.00;98801.47;5041533;28;19932;-46
2022/10/10 06:48:35;;;;;;;;;;;;;;;14.86;100.00;98801.72;5040621;28;20385;-46
2022/10/10 06:51:02;;;;;;;;;;;;;;;14.99;100.00;98810.53;5041462;28;19917;-45
2022/10/10 06:53:28;;;;;;;;;;;;;;;14.33;100.00;98813.91;5041027;28;20286;-47
2022/10/10 06:55:53;;;;;;;;;;;;;;;14.71;100.00;98818.91;5023418;28;19927;-46
2022/10/10 06:58:19;;;;;;;;;;;;;;;15.02;100.00;98812.94;5023064;28;19969;-44
2022/10/10 07:00:48;;;;;;;;;;;;;;;15.18;100.00;98817.31;5022622;28;19924;-46
2022/10/10 07:03:13;;;;;;;;;;;;;;;15.65;100.00;98804.34;5039220;28;19932;-45
2022/10/10 07:05:40;;;;;;;;;;;;;;;15.70;100.00;98801.47;5040383;28;19912;-45
2022/10/10 07:08:05;;;;;;;;;;;;;;;15.31;100.00;98812.31;5040649;28;19923;-46
2022/10/10 07:10:31;;;;;;;;;;;;;;;15.70;100.00;98806.66;5038689;28;19917;-45
2022/10/10 07:12:56;;;;;;;;;;;;;;;15.66;100.00;98802.56;5040410;28;20305;-46
2022/10/10 07:15:21;;;;;;;;;;;;;;;15.56;100.00;98811.81;5040655;28;19927;-45
2022/10/10 07:17:46;;;;;;;;;;;;;;;15.24;100.00;98811.81;5041291;28;19927;-46
2022/10/10 07:20:12;;;;;;;;;;;;;;;15.66;100.00;98813.78;5022207;28;19999;-46
2022/10/10 07:22:37;;;;;;;;;;;;;;;15.68;100.00;98814.53;5039866;28;19967;-45
2022/10/10 07:25:02;;;;;;;;;;;;;;;16.09;100.00;98815.75;5040956;28;19967;-45
2022/10/10 07:27:27;;;;;;;;;;;;;;;16.10;100.00;98810.47;5023087;28;19920;-46
2022/10/10 07:29:53;;;;;;;;;;;;;;;16.45;100.00;98807.56;5039860;28;20365;-45
2022/10/10 07:32:18;;;;;;;;;;;;;;;15.99;100.00;98809.44;5040183;28;20331;-45
2022/10/10 07:34:43;;;;;;;;;;;;;;;15.92;100.00;98808.06;5033864;28;20321;-45
2022/10/10 07:37:08;;;;;;;;;;;;;;;16.41;100.00;98803.47;5040335;28;19924;-46
2022/10/10 07:39:34;;;;;;;;;;;;;;;16.71;100.00;98795.59;5039784;28;19924;-45
2022/10/10 07:41:59;;;;;;;;;;;;;;;16.07;100.00;98804.59;5040213;28;20561;-45
2022/10/10 07:44:24;;;;;;;;;;;;;;;16.60;100.00;98794.56;5039905;28;20323;-45
2022/10/10 07:46:49;;;;;;;;;;;;;;;16.75;100.00;98782.44;5040289;28;19965;-46
2022/10/10 07:49:15;;;;;;;;;;;;;;;16.91;100.00;98788.38;5039639;28;20022;-46
2022/10/10 07:51:40;;;;;;;;;;;;;;;17.18;100.00;98782.41;5039020;28;19928;-46
2022/10/10 07:54:05;;;;;;;;;;;;;;;17.65;100.00;98783.75;5039841;28;19940;-46
2022/10/10 07:56:30;;;;;;;;;;;;;;;17.13;100.00;98785.31;5040292;28;19951;-45
2022/10/10 07:58:56;;;;;;;;;;;;;;;17.32;100.00;98782.38;5039606;28;19921;-45
2022/10/10 08:01:21;;;;;;;;;;;;;;;17.38;100.00;98783.75;5040255;28;19916;-46
2022/10/10 08:03:47;;;;;;;;;;;;;;;18.11;100.00;98780.75;5039723;28;19921;-46
2022/10/10 08:06:13;;;;;;;;;;;;;;;18.26;100.00;98779.75;5022297;28;19921;-46
2022/10/10 08:08:38;;;;;;;;;;;;;;;18.07;100.00;98784.53;5022449;28;19924;-45
2022/10/10 08:11:04;;;;;;;;;;;;;;;18.44;100.00;98777.66;5021401;28;19916;-46
2022/10/10 08:13:29;;;;;;;;;;;;;;;18.99;100.00;98778.28;5040192;28;19951;-46
2022/10/10 08:15:55;;;;;;;;;;;;;;;19.59;100.00;98771.38;5039924;28;19921;-46
2022/10/10 08:18:20;;;;;;;;;;;;;;;19.58;100.00;98760.09;5038622;28;19947;-46
2022/10/10 08:20:45;;;;;;;;;;;;;;;19.13;100.00;98772.91;5040598;28;20047;-46
2022/10/10 08:23:10;;;;;;;;;;;;;;;19.42;100.00;98765.59;5038718;28;19916;-45
2022/10/10 08:25:36;;;;;;;;;;;;;;;20.11;100.00;98766.72;5038354;28;19921;-45
2022/10/10 08:28:01;;;;;;;;;;;;;;;20.03;100.00;98769.94;5039813;28;19920;-45
2022/10/10 08:30:26;;;;;;;;;;;;;;;20.61;100.00;98769.94;5039748;28;19917;-46
2022/10/10 08:32:51;;;;;;;;;;;;;;;20.60;100.00;98773.50;5021206;28;19921;-47
2022/10/10 08:35:17;;;;;;;;;;;;;;;20.41;100.00;98769.66;5039795;28;19920;-47
2022/10/10 08:37:42;;;;;;;;;;;;;;;20.81;100.00;98777.06;5040268;28;19983;-46
2022/10/10 08:40:09;;;;;;;;;;;;;;;21.18;100.00;98768.09;5021502;28;19932;-45
2022/10/10 08:42:38;;;;;;;;;;;;;;;20.36;100.00;98782.22;5022391;28;19920;-46
2022/10/10 08:45:07;;;;;;;;;;;;;;;21.45;100.00;98775.56;5021814;28;20440;-46
2022/10/10 08:47:36;;;;;;;;;;;;;;;20.68;100.00;98777.16;5040338;28;19920;-47
2022/10/10 08:50:03;;;;;;;;;;;;;;;21.09;100.00;98777.50;5039445;28;19917;-46
2022/10/10 08:52:28;;;;;;;;;;;;;;;21.15;100.00;98773.59;5022020;28;19923;-47
2022/10/10 08:54:53;;;;;;;;;;;;;;;21.49;100.00;98771.75;5040013;28;19927;-46
2022/10/10 08:57:26;;;;;;;;;;;;;;;21.28;100.00;98762.00;5039818;28;19917;-49
2022/10/10 08:59:52;;;;;;;;;;;;;;;21.58;100.00;98764.94;5021468;28;20380;-45
2022/10/10 09:02:23;;;;;;;;;;;;;;;21.98;100.00;98762.47;5021867;28;20460;-47
2022/10/10 09:04:49;;;;;;;;;;;;;;;22.01;100.00;98757.00;5026045;28;20831;-46
2022/10/10 09:07:23;;;;;;;;;;;;;;;21.61;100.00;98765.50;5043714;28;19920;-46
2022/10/10 09:10:24;;;;;;;;;;;;;;;22.32;100.00;98743.94;5025569;28;19917;-46
2022/10/10 09:13:24;;;;;;;;;;;;;;;21.78;100.00;98758.91;4962323;28;19962;-46
2022/10/10 09:15:56;;;;;;;;;;;;;;;22.51;100.00;98749.31;4981426;28;20474;-46
2022/10/10 09:18:45;;;;;;;;;;;;;;;22.22;100.00;98761.44;5032582;28;20405;-48
2022/10/10 09:21:17;;;;;;;;;;;;;;;22.05;100.00;98754.94;5032445;28;19928;-47
2022/10/10 09:23:48;;;;;;;;;;;;;;;21.44;100.00;98763.41;5024173;28;20675;-49
2022/10/10 09:26:15;;;;;;;;;;;;;;;20.83;100.00;98769.94;5043328;28;19920;-47
2022/10/10 09:28:55;;;;;;;;;;;;;;;22.25;100.00;98769.03;5042823;28;19917;-47
2022/10/10 09:31:50;;;;;;;;;;;;;;;21.83;100.00;98779.50;5025218;28;19928;-46
2022/10/10 09:34:21;;;;;;;;;;;;;;;22.14;100.00;98768.09;5025816;28;19928;-46
2022/10/10 09:36:46;;;;;;;;;;;;;;;22.39;100.00;98771.31;5042195;28;19935;-48
2022/10/10 09:39:21;;;;;;;;;;;;;;;22.34;100.00;98768.28;5024562;28;19921;-47
2022/10/10 09:41:46;;;;;;;;;;;;;;;22.27;100.00;98788.94;5043139;28;19923;-46
2022/10/10 09:44:12;;;;;;;;;;;;;;;22.25;100.00;98774.28;5037695;28;19921;-47
2022/10/10 09:46:37;;;;;;;;;;;;;;;22.42;100.00;98775.47;5040133;28;19921;-47
2022/10/10 09:49:03;;;;;;;;;;;;;;;21.57;100.00;98782.44;5022832;28;19931;-46
2022/10/10 09:51:28;;;;;;;;;;;;;;;21.57;100.00;98774.56;5022464;28;20369;-47
2022/10/10 09:53:53;;;;;;;;;;;;;;;22.56;100.00;98767.28;5041730;28;19924;-46
2022/10/10 09:56:21;;;;;;;;;;;;;;;22.93;100.00;98770.19;5042465;28;19917;-48
2022/10/10 09:58:47;;;;;;;;;;;;;;;23.51;100.00;98763.41;5041829;28;19916;-46
2022/10/10 10:01:12;;;;;;;;;;;;;;;22.86;100.00;98774.31;5041586;28;19992;-48
2022/10/10 10:03:38;;;;;;;;;;;;;;;23.94;100.00;98763.03;5041970;28;19916;-47
2022/10/10 10:06:03;;;;;;;;;;;;;;;23.83;100.00;98764.97;5041686;28;20373;-46
2022/10/10 10:08:29;;;;;;;;;;;;;;;23.20;100.00;98766.16;5041375;28;19928;-46
2022/10/10 10:10:58;;;;;;;;;;;;;;;22.50;100.00;98789.63;5022766;28;19916;-46
2022/10/10 10:13:25;;;;;;;;;;;;;;;23.36;100.00;98779.59;5023362;28;19956;-46
2022/10/10 10:15:59;;;;;;;;;;;;;;;21.86;100.00;98800.22;5039466;28;20661;-46
2022/10/10 10:18:27;;;;;;;;;;;;;;;22.68;100.00;98796.91;5022347;28;19916;-48
2022/10/10 10:20:54;;;;;;;;;;;;;;;23.44;100.00;98778.91;5040672;28;19970;-47
2022/10/10 10:23:32;;;;;;;;;;;;;;;22.49;100.00;98798.47;5022103;28;19917;-48
2022/10/10 10:25:59;;;;;;;;;;;;;;;23.34;100.00;98786.78;5041068;28;19939;-47
2022/10/10 10:28:25;;;;;;;;;;;;;;;23.39;100.00;98795.06;5041374;28;20369;-47
2022/10/10 10:30:51;;;;;;;;;;;;;;;22.49;100.00;98808.97;5040957;28;20012;-47
2022/10/10 10:33:36;;;;;;;;;;;;;;;22.22;100.00;98824.41;5022676;28;19979;-48
2022/10/10 10:36:04;;;;;;;;;;;;;;;23.37;100.00;98810.16;5041411;28;20263;-48
2022/10/10 10:38:32;;;;;;;;;;;;;;;23.12;100.00;98810.63;5041045;28;20004;-46
2022/10/10 10:41:04;;;;;;;;;;;;;;;23.65;100.00;98797.22;5041334;28;19916;-47
2022/10/10 10:43:30;;;;;;;;;;;;;;;23.49;100.00;98799.53;5024166;28;19921;-47
2022/10/10 10:46:13;;;;;;;;;;;;;;;23.42;100.00;98791.34;5041553;28;19924;-47
2022/10/10 10:48:43;;;;;;;;;;;;;;;23.90;100.00;98801.13;5039641;28;19960;-48
2022/10/10 10:51:11;;;;;;;;;;;;;;;23.62;99.62;98805.34;5040839;28;19920;-48
2022/10/10 10:53:36;;;;;;;;;;;;;;;23.80;100.00;98803.72;5041045;28;19924;-50
2022/10/10 10:56:01;;;;;;;;;;;;;;;;;;5041421;28;20431;-49
2022/10/10 10:58:39;;;;;;;;;;;;;;;24.56;96.63;98805.63;5041060;28;20035;-48
2022/10/10 11:01:04;;;;;;;;;;;;;;;24.73;96.93;98808.47;5040518;28;19966;-47
2022/10/10 11:03:39;;;;;;;;;;;;;;;23.94;96.11;98801.66;5023466;28;19964;-47
2022/10/10 11:06:09;;;;;;;;;;;;;;;23.56;94.04;98795.38;5040486;28;19950;-48
2022/10/10 11:08:56;;;;;;;;;;;;;;;24.01;95.63;98802.75;5022788;28;20019;-48
2022/10/10 11:11:42;;;;;;;;;;;;;;;23.92;94.07;98798.34;5023255;28;19917;-48
2022/10/10 11:14:11;;;;;;;;;;;;;;;24.66;89.14;98804.75;4999624;28;19924;-48
2022/10/10 11:16:36;;;;;;;;;;;;;;;24.10;87.39;98804.56;5023887;28;19948;-50
2022/10/10 11:19:07;;;;;;;;;;;;;;;23.70;85.63;98794.16;5040894;28;19952;-49
2022/10/10 11:21:33;;;;;;;;;;;;;;;24.08;88.50;98803.03;5040676;28;19932;-49
2022/10/10 11:24:04;;;;;;;;;;;;;;;24.15;85.59;98791.81;5021633;28;19920;-49
2022/10/10 11:26:30;;;;;;;;;;;;;;;25.11;82.63;98790.81;5022912;28;19917;-49
2022/10/10 11:28:55;;;;;;;;;;;;;;;24.93;84.79;98794.25;5021320;28;19927;-48
2022/10/10 11:31:25;;;;;;;;;;;;;;;25.23;81.10;98784.44;5040220;28;19916;-48
2022/10/10 11:33:56;;;;;;;;;;;;;;;24.94;80.34;98785.38;5041215;28;20032;-47
2022/10/10 11:36:22;;;;;;;;;;;;;;;24.54;83.92;98794.41;5023101;28;19917;-49
2022/10/10 11:38:50;;;;;;;;;;;;;;;24.57;82.62;98794.09;5022454;28;19959;-50
2022/10/10 11:41:22;;;;;;;;;;;;;;;24.80;81.77;98788.50;5022198;28;19921;-47
2022/10/10 11:43:49;;;;;;;;;;;;;;;24.95;79.84;98791.47;5022021;28;19920;-48
2022/10/10 11:46:17;;;;;;;;;;;;;;;25.32;81.61;98793.25;5039832;28;19967;-47
2022/10/10 11:48:44;;;;;;;;;;;;;;;24.93;79.20;98793.41;5039537;28;19920;-48
2022/10/10 11:51:12;;;;;;;;;;;;;;;24.35;79.96;98792.59;5022004;28;20378;-48
2022/10/10 11:53:39;;;;;;;;;;;;;;;24.19;81.45;98803.72;5040624;28;19925;-47
2022/10/10 11:56:04;;;;;;;;;;;;;;;24.11;78.30;98798.34;5022882;28;19921;-48
2022/10/10 11:58:36;;;;;;;;;;;;;;;23.59;74.55;98787.22;5039756;28;19928;-48
2022/10/10 12:01:05;;;;;;;;;;;;;;;23.66;78.34;98793.59;5022654;28;19924;-47
2022/10/10 12:03:30;;;;;;;;;;;;;;;24.27;79.53;98802.16;5039544;28;20784;-47
2022/10/10 12:06:01;;;;;;;;;;;;;;;24.58;77.86;98800.19;5039544;28;19928;-48
2022/10/10 12:08:34;;;;;;;;;;;;;;;23.93;80.68;98803.47;5022109;28;19916;-47
2022/10/10 12:11:00;;;;;;;;;;;;;;;24.99;80.65;98798.09;5039762;28;19916;-49
2022/10/10 12:13:44;;;;;;;;;;;;;;;24.34;77.71;98790.13;5022030;28;19935;-49
2022/10/10 12:16:12;;;;;;;;;;;;;;;24.83;77.66;98788.19;5039685;28;19916;-48
2022/10/10 12:18:38;;;;;;;;;;;;;;;24.57;78.77;98783.56;5039834;28;20039;-50
2022/10/10 12:21:07;;;;;;;;;;;;;;;24.59;75.76;98780.81;5039795;28;20003;-48
2022/10/10 12:23:32;;;;;;;;;;;;;;;24.03;74.52;98779.78;5019830;28;19944;-46
2022/10/10 12:25:58;;;;;;;;;;;;;;;24.64;76.66;98789.09;5020672;28;19917;-48
2022/10/10 12:28:26;;;;;;;;;;;;;;;25.56;78.62;98790.03;5021353;28;19920;-47
2022/10/10 12:30:55;;;;;;;;;;;;;;;25.69;72.64;98781.75;5039953;28;21027;-48
2022/10/10 12:33:32;;;;;;;;;;;;;;;24.51;72.87;98784.13;5040063;28;19921;-48
2022/10/10 12:36:15;;;;;;;;;;;;;;;25.25;76.62;98785.09;5040121;28;20456;-47
2022/10/10 12:38:42;;;;;;;;;;;;;;;25.64;75.59;98774.28;5042495;28;19912;-47